Time;durP1;ratioP1;P1;durP2;ratioP2;P2;SDS_P1;SDS_P2;PMS_P1;PMS_P2;Temp;Humidity;BMP_temperature;BMP_pressure;BME280_temperature;BME280_humidity;BME280_pressure;Samples;Min_cycle;Max_cycle;Signal;HPM_P1;HPM_P2
2021/06/22 00:01:53;;;;;;;3.65;2.00;;;15.40;84.80;;;;;;5052561;28;20021;-77
2021/06/22 00:04:18;;;;;;;4.63;2.10;;;15.40;84.80;;;;;;5053132;28;20055;-77
2021/06/22 00:06:44;;;;;;;5.63;2.40;;;15.40;84.80;;;;;;5053807;28;20155;-76
2021/06/22 00:09:10;;;;;;;4.63;2.65;;;15.40;84.90;;;;;;5053052;28;20096;-77
2021/06/22 00:11:35;;;;;;;6.00;2.33;;;15.40;84.90;;;;;;5053496;28;20025;-78
2021/06/22 00:14:01;;;;;;;3.80;2.20;;;15.40;84.90;;;;;;5052308;28;20539;-77
2021/06/22 00:16:27;;;;;;;8.15;2.78;;;15.40;84.90;;;;;;5053128;28;20041;-77
2021/06/22 00:18:53;;;;;;;5.38;2.40;;;15.40;84.90;;;;;;5053580;28;20040;-77
2021/06/22 00:21:19;;;;;;;4.93;2.00;;;15.40;84.80;;;;;;5051561;28;20485;-77
2021/06/22 00:23:44;;;;;;;5.63;2.53;;;15.50;84.70;;;;;;5053424;28;20059;-77
2021/06/22 00:26:10;;;;;;;4.38;2.15;;;15.50;84.70;;;;;;5052738;28;20032;-78
2021/06/22 00:28:36;;;;;;;4.60;2.00;;;15.50;84.80;;;;;;5052015;28;20025;-77
2021/06/22 00:31:01;;;;;;;6.18;2.38;;;15.50;84.70;;;;;;5052010;28;20056;-77
2021/06/22 00:33:27;;;;;;;7.53;2.50;;;15.40;84.70;;;;;;5051104;28;20048;-77
2021/06/22 00:35:53;;;;;;;4.40;2.50;;;15.50;84.80;;;;;;5053187;28;20021;-77
2021/06/22 00:38:19;;;;;;;5.57;2.05;;;15.50;84.80;;;;;;5050149;28;20381;-76
2021/06/22 00:40:44;;;;;;;7.03;2.40;;;15.50;84.80;;;;;;5052853;28;20094;-78
2021/06/22 00:43:10;;;;;;;4.10;2.42;;;15.50;84.90;;;;;;5052298;28;20039;-77
2021/06/22 00:45:35;;;;;;;5.22;2.38;;;15.40;84.90;;;;;;5052610;28;20031;-77
2021/06/22 00:48:03;;;;;;;4.50;1.83;;;15.40;85.10;;;;;;5052977;28;20055;-77
2021/06/22 00:50:29;;;;;;;6.03;2.72;;;15.40;85.10;;;;;;5052285;28;20237;-76
2021/06/22 00:52:55;;;;;;;5.38;2.63;;;15.30;85.20;;;;;;5051396;28;20468;-78
2021/06/22 00:55:30;;;;;;;3.75;2.05;;;15.20;85.40;;;;;;5051909;28;20021;-78
2021/06/22 00:58:01;;;;;;;5.93;2.55;;;15.20;85.60;;;;;;5051476;28;20530;-77
2021/06/22 01:00:27;;;;;;;6.68;2.05;;;15.20;85.60;;;;;;5050738;28;20342;-77
2021/06/22 01:02:54;;;;;;;5.57;2.65;;;15.20;85.60;;;;;;5052473;28;20029;-77
2021/06/22 01:05:20;;;;;;;5.88;2.50;;;15.20;85.50;;;;;;5050591;28;20603;-78
2021/06/22 01:07:47;;;;;;;4.53;2.00;;;15.20;85.50;;;;;;5051095;28;20136;-77
2021/06/22 01:10:12;;;;;;;5.72;2.42;;;15.20;85.60;;;;;;5051856;28;20098;-77
2021/06/22 01:12:38;;;;;;;6.13;2.15;;;15.20;85.70;;;;;;5052417;28;20029;-77
2021/06/22 01:15:12;;;;;;;6.35;2.13;;;15.20;85.70;;;;;;5052355;28;20104;-77
2021/06/22 01:17:38;;;;;;;4.38;2.00;;;15.20;85.70;;;;;;5051126;28;20427;-76
2021/06/22 01:20:04;;;;;;;6.70;2.53;;;15.20;85.70;;;;;;5052267;28;20029;-78
2021/06/22 01:22:30;;;;;;;6.13;2.22;;;15.10;85.70;;;;;;5051299;28;20079;-77
2021/06/22 01:24:57;;;;;;;3.97;2.35;;;15.10;86.30;;;;;;5051001;28;20433;-78
2021/06/22 01:27:23;;;;;;;3.45;1.95;;;15.00;86.00;;;;;;5050236;28;20108;-77
2021/06/22 01:29:49;;;;;;;6.38;2.58;;;15.00;86.10;;;;;;5052375;28;20117;-76
2021/06/22 01:32:15;;;;;;;5.03;2.20;;;15.00;86.20;;;;;;5050143;28;20029;-76
2021/06/22 01:34:41;;;;;;;4.55;2.17;;;15.00;86.20;;;;;;5050374;28;20021;-77
2021/06/22 01:37:08;;;;;;;6.00;2.35;;;15.00;86.40;;;;;;5052220;28;20029;-77
2021/06/22 01:39:35;;;;;;;5.10;2.10;;;14.90;86.40;;;;;;5049777;28;20025;-77
2021/06/22 01:42:00;;;;;;;4.65;2.28;;;14.90;86.40;;;;;;5051910;28;20025;-77
2021/06/22 01:44:30;;;;;;;6.82;2.22;;;14.90;86.50;;;;;;5050927;28;20393;-77
2021/06/22 01:46:56;;;;;;;5.60;2.40;;;14.90;86.50;;;;;;5052193;28;20025;-77
2021/06/22 01:49:22;;;;;;;4.75;2.47;;;14.90;86.50;;;;;;5050086;28;20450;-77
2021/06/22 01:51:48;;;;;;;4.82;2.50;;;14.80;86.50;;;;;;5051841;28;20021;-77
2021/06/22 01:54:14;;;;;;;6.85;2.33;;;14.80;86.70;;;;;;5051547;28;20035;-81
2021/06/22 01:56:46;;;;;;;4.38;2.30;;;14.80;86.80;;;;;;5052183;28;20067;-76
2021/06/22 01:59:12;;;;;;;3.95;2.03;;;14.80;86.80;;;;;;5051941;28;20021;-76
2021/06/22 02:01:37;;;;;;;7.20;2.75;;;14.70;86.80;;;;;;5049814;28;20021;-78
2021/06/22 02:04:03;;;;;;;4.15;2.13;;;14.70;86.90;;;;;;5050514;28;20060;-77
2021/06/22 02:06:29;;;;;;;4.90;2.30;;;14.70;87.00;;;;;;5051499;28;20056;-77
2021/06/22 02:08:54;;;;;;;6.15;2.20;;;14.60;87.00;;;;;;5051865;28;20429;-76
2021/06/22 02:11:20;;;;;;;5.55;2.20;;;14.60;87.10;;;;;;5051028;28;20108;-78
2021/06/22 02:13:48;;;;;;;6.30;2.28;;;14.60;87.10;;;;;;5051852;28;20040;-77
2021/06/22 02:16:13;;;;;;;5.20;2.30;;;14.60;87.10;;;;;;5050227;28;20025;-77
2021/06/22 02:18:39;;;;;;;6.22;2.38;;;14.70;87.10;;;;;;5049627;28;20036;-76
2021/06/22 02:21:06;;;;;;;6.80;2.15;;;14.70;87.10;;;;;;5054758;28;20060;-75
2021/06/22 02:23:32;;;;;;;6.25;2.50;;;14.70;87.00;;;;;;5054986;28;20057;-77
2021/06/22 02:25:58;;;;;;;7.43;2.35;;;14.70;87.00;;;;;;5055653;28;20025;-76
2021/06/22 02:28:24;;;;;;;4.43;2.40;;;14.70;86.90;;;;;;5053711;28;20032;-76
2021/06/22 02:30:51;;;;;;;3.75;2.00;;;14.70;86.90;;;;;;5055363;28;20096;-77
2021/06/22 02:33:16;;;;;;;4.97;2.28;;;14.70;87.00;;;;;;5055226;28;20123;-81
2021/06/22 02:35:42;;;;;;;3.90;1.90;;;14.70;87.10;;;;;;5055077;28;20163;-77
2021/06/22 02:38:09;;;;;;;4.10;2.53;;;14.70;87.10;;;;;;5053066;28;20555;-76
2021/06/22 02:40:35;;;;;;;5.57;2.63;;;14.60;87.00;;;;;;5054725;28;20035;-78
2021/06/22 02:43:01;;;;;;;4.53;2.40;;;14.60;87.10;;;;;;5055486;28;20116;-77
2021/06/22 02:45:26;;;;;;;6.80;2.42;;;14.60;87.10;;;;;;5054882;28;20368;-77
2021/06/22 02:47:52;;;;;;;4.72;2.10;;;14.60;87.10;;;;;;5053846;28;20401;-77
2021/06/22 02:50:19;;;;;;;2.97;1.92;;;14.60;87.10;;;;;;5053318;28;20437;-82
2021/06/22 02:52:45;;;;;;;6.47;2.55;;;14.60;87.10;;;;;;5054863;28;20495;-77
2021/06/22 02:55:20;;;;;;;5.13;2.22;;;14.60;87.10;;;;;;5053608;28;20029;-76
2021/06/22 02:57:51;;;;;;;6.10;2.47;;;14.60;87.20;;;;;;5055283;28;20048;-77
2021/06/22 03:00:19;;;;;;;5.95;2.25;;;14.60;87.20;;;;;;5054601;28;20029;-77
2021/06/22 03:02:45;;;;;;;4.80;2.72;;;14.50;87.50;;;;;;5053397;28;20040;-77
2021/06/22 03:05:12;;;;;;;5.43;2.50;;;14.50;87.40;;;;;;5053515;28;20025;-76
2021/06/22 03:07:38;;;;;;;6.25;2.53;;;14.40;87.40;;;;;;5052808;28;20021;-77
2021/06/22 03:10:11;;;;;;;5.32;2.25;;;14.40;87.50;;;;;;5053679;28;20021;-76
2021/06/22 03:12:37;;;;;;;3.88;2.17;;;14.40;87.50;;;;;;5052748;28;20457;-76
2021/06/22 03:15:04;;;;;;;7.10;2.70;;;14.40;87.50;;;;;;5054593;28;20048;-76
2021/06/22 03:17:30;;;;;;;7.10;2.40;;;14.40;87.50;;;;;;5052610;28;20494;-77
2021/06/22 03:19:56;;;;;;;5.70;2.42;;;14.40;87.60;;;;;;5054813;28;20465;-76
2021/06/22 03:22:21;;;;;;;6.13;2.53;;;14.30;87.60;;;;;;5052514;28;20063;-77
2021/06/22 03:24:47;;;;;;;4.88;2.55;;;14.30;87.70;;;;;;5054481;28;20445;-76
2021/06/22 03:27:13;;;;;;;7.72;2.60;;;14.30;87.60;;;;;;5054606;28;20025;-76
2021/06/22 03:29:38;;;;;;;4.28;1.90;;;14.30;87.70;;;;;;5053464;28;20458;-76
2021/06/22 03:32:04;;;;;;;3.80;2.20;;;14.30;88.20;;;;;;5052784;28;20057;-77
2021/06/22 03:34:30;;;;;;;5.50;3.03;;;14.40;87.60;;;;;;5053875;28;20032;-76
2021/06/22 03:36:56;;;;;;;4.45;2.30;;;14.40;87.60;;;;;;5052587;28;20017;-77
2021/06/22 03:39:21;;;;;;;5.50;2.10;;;14.40;87.60;;;;;;5052432;28;20028;-78
2021/06/22 03:41:47;;;;;;;4.72;2.38;;;14.40;87.70;;;;;;5053928;28;20029;-76
2021/06/22 03:44:13;;;;;;;5.38;2.30;;;14.40;87.70;;;;;;5054143;28;20029;-76
2021/06/22 03:46:42;;;;;;;7.68;2.42;;;14.30;87.60;;;;;;5052047;28;20025;-77
2021/06/22 03:49:09;;;;;;;3.83;2.30;;;14.30;87.70;;;;;;5052620;28;20025;-77
2021/06/22 03:51:35;;;;;;;5.32;2.28;;;14.30;87.70;;;;;;5053349;28;20130;-77
2021/06/22 03:54:00;;;;;;;6.28;2.35;;;14.30;87.80;;;;;;5052749;28;20028;-76
2021/06/22 03:56:27;;;;;;;4.30;2.17;;;14.30;87.80;;;;;;5051687;28;20049;-77
2021/06/22 03:58:53;;;;;;;3.83;2.13;;;14.30;87.80;;;;;;5045631;28;20025;-75
2021/06/22 04:01:19;;;;;;;4.25;2.17;;;14.30;87.80;;;;;;5053030;28;20414;-76
2021/06/22 04:03:45;;;;;;;5.30;2.75;;;14.30;87.80;;;;;;5052365;28;20033;-76
2021/06/22 04:06:11;;;;;;;4.88;2.15;;;14.30;87.80;;;;;;5053049;28;20021;-75
2021/06/22 04:08:37;;;;;;;7.40;2.97;;;14.30;87.70;;;;;;5050093;28;20465;-76
2021/06/22 04:11:04;;;;;;;6.13;2.25;;;14.40;87.70;;;;;;5049119;28;20025;-76
2021/06/22 04:13:29;;;;;;;5.13;2.33;;;14.40;87.70;;;;;;5052671;28;20021;-76
2021/06/22 04:15:55;;;;;;;5.28;2.55;;;14.40;87.80;;;;;;5051702;28;20031;-75
2021/06/22 04:18:22;;;;;;;3.55;2.15;;;14.30;87.70;;;;;;5053008;28;20033;-75
2021/06/22 04:20:48;;;;;;;9.10;2.20;;;14.30;87.70;;;;;;5052682;28;20021;-75
2021/06/22 04:23:13;;;;;;;5.43;2.38;;;14.40;87.70;;;;;;5051664;28;20029;-76
2021/06/22 04:25:39;;;;;;;6.00;2.03;;;14.30;87.70;;;;;;5052699;28;20023;-76
2021/06/22 04:28:05;;;;;;;6.28;2.38;;;14.30;87.70;;;;;;5052887;28;20036;-76
2021/06/22 04:30:32;;;;;;;5.30;2.72;;;14.40;87.80;;;;;;5051299;28;20108;-75
2021/06/22 04:32:58;;;;;;;4.95;2.50;;;14.40;87.70;;;;;;5051837;28;20448;-76
2021/06/22 04:35:26;;;;;;;4.40;2.70;;;14.40;87.60;;;;;;5052806;28;20442;-75
2021/06/22 04:37:52;;;;;;;6.55;2.97;;;14.40;87.60;;;;;;5047584;28;20029;-77
2021/06/22 04:40:18;;;;;;;6.07;2.78;;;14.50;87.60;;;;;;5032499;28;20045;-77
2021/06/22 04:42:43;;;;;;;8.63;2.97;;;14.40;87.40;;;;;;5031836;28;20037;-76
2021/06/22 04:45:10;;;;;;;6.32;2.80;;;14.40;87.40;;;;;;5032677;28;20386;-75
2021/06/22 04:47:36;;;;;;;6.07;2.92;;;14.40;87.40;;;;;;5047735;28;20119;-75
2021/06/22 04:50:03;;;;;;;7.60;3.30;;;14.50;87.40;;;;;;5032963;28;20026;-75
2021/06/22 04:52:29;;;;;;;6.38;2.92;;;14.50;87.30;;;;;;5031912;28;20382;-74
2021/06/22 04:54:54;;;;;;;7.70;2.85;;;14.50;87.10;;;;;;5032759;28;20029;-75
2021/06/22 04:57:20;;;;;;;7.32;3.25;;;14.50;87.00;;;;;;5054121;28;20078;-76
2021/06/22 04:59:47;;;;;;;5.90;3.28;;;14.60;86.80;;;;;;5055171;28;20326;-76
2021/06/22 05:02:12;;;;;;;5.78;2.95;;;14.60;86.70;;;;;;5051007;28;20021;-76
2021/06/22 05:04:39;;;;;;;5.22;3.15;;;14.70;86.50;;;;;;5030410;28;20492;-76
2021/06/22 05:07:05;;;;;;;6.40;2.67;;;14.80;86.30;;;;;;5032089;28;20026;-75
2021/06/22 05:09:30;;;;;;;6.28;3.28;;;14.90;86.20;;;;;;5030490;28;20032;-77
2021/06/22 05:11:56;;;;;;;5.32;2.80;;;14.90;86.10;;;;;;5037645;28;20035;-77
2021/06/22 05:14:22;;;;;;;7.18;3.40;;;15.00;85.90;;;;;;5036281;28;20104;-76
2021/06/22 05:16:49;;;;;;;6.60;3.25;;;15.00;85.60;;;;;;5034918;28;20022;-79
2021/06/22 05:19:15;;;;;;;6.00;3.17;;;15.10;85.60;;;;;;5039805;28;20068;-76
2021/06/22 05:21:41;;;;;;;9.63;3.63;;;15.10;85.50;;;;;;5050176;28;20032;-76
2021/06/22 05:24:11;;;;;;;7.43;3.33;;;15.10;85.40;;;;;;5051958;28;20029;-77
2021/06/22 05:26:36;;;;;;;7.90;3.63;;;15.20;85.20;;;;;;5049795;28;20032;-80
2021/06/22 05:29:02;;;;;;;9.90;3.90;;;15.30;84.90;;;;;;5052252;28;20021;-76
2021/06/22 05:31:28;;;;;;;8.38;3.80;;;15.30;84.70;;;;;;5050868;28;20017;-77
2021/06/22 05:33:56;;;;;;;7.90;3.72;;;15.40;84.70;;;;;;5050159;28;20025;-77
2021/06/22 05:36:21;;;;;;;7.15;3.15;;;15.40;84.40;;;;;;5051756;28;20523;-77
2021/06/22 05:38:47;;;;;;;7.57;3.75;;;15.40;84.30;;;;;;5050025;28;20028;-78
2021/06/22 05:41:13;;;;;;;12.52;4.25;;;15.50;84.20;;;;;;5052249;28;20025;-76
2021/06/22 05:43:39;;;;;;;6.63;2.95;;;15.50;84.10;;;;;;5050931;28;20025;-76
2021/06/22 05:46:05;;;;;;;6.18;3.08;;;15.60;84.10;;;;;;5051936;28;20036;-76
2021/06/22 05:48:30;;;;;;;7.88;3.65;;;15.70;84.00;;;;;;5051899;28;20017;-75
2021/06/22 05:50:56;;;;;;;8.30;3.45;;;15.70;83.70;;;;;;5050910;28;20025;-77
2021/06/22 05:53:21;;;;;;;8.05;3.92;;;15.80;83.60;;;;;;5051900;28;20049;-77
2021/06/22 05:55:48;;;;;;;8.25;3.40;;;15.80;84.10;;;;;;5048778;28;20017;-76
2021/06/22 05:58:13;;;;;;;6.55;3.30;;;15.80;83.40;;;;;;5049844;28;20408;-77
2021/06/22 06:00:39;;;;;;;5.65;2.88;;;15.90;83.40;;;;;;5049869;28;20111;-76
2021/06/22 06:03:06;;;;;;;8.45;3.78;;;15.90;83.40;;;;;;5050289;28;20033;-76
2021/06/22 06:05:32;;;;;;;6.82;3.25;;;16.00;83.40;;;;;;5051867;28;20021;-76
2021/06/22 06:07:57;;;;;;;8.45;3.63;;;16.00;83.30;;;;;;5051049;28;20025;-76
2021/06/22 06:10:24;;;;;;;7.10;3.47;;;16.00;83.10;;;;;;5050434;28;20032;-76
2021/06/22 06:12:50;;;;;;;7.03;3.17;;;16.00;83.10;;;;;;5050599;28;20405;-76
2021/06/22 06:15:17;;;;;;;6.90;4.25;;;15.90;83.00;;;;;;5050286;28;20427;-76
2021/06/22 06:17:43;;;;;;;11.93;3.85;;;15.90;82.90;;;;;;5050893;28;20529;-76
2021/06/22 06:20:11;;;;;;;10.20;4.30;;;15.90;82.80;;;;;;5050306;28;20097;-77
2021/06/22 06:22:38;;;;;;;9.45;4.70;;;15.80;82.90;;;;;;5050819;28;20073;-76
2021/06/22 06:25:05;;;;;;;8.95;3.95;;;15.80;82.90;;;;;;5051499;28;20017;-77
2021/06/22 06:30:16;;;;;;;7.75;4.50;;;15.80;82.50;;;;;;5051537;28;20033;-77
2021/06/22 06:32:42;;;;;;;10.23;4.15;;;15.80;82.60;;;;;;5049753;28;20053;-76
2021/06/22 06:35:08;;;;;;;8.25;4.18;;;15.80;82.30;;;;;;5051269;28;20100;-76
2021/06/22 06:37:34;;;;;;;6.30;3.40;;;15.90;82.10;;;;;;5050080;28;20044;-77
2021/06/22 06:40:00;;;;;;;6.50;3.92;;;15.90;82.00;;;;;;5049780;28;20025;-76
2021/06/22 06:42:25;;;;;;;10.05;4.28;;;16.00;81.80;;;;;;5050149;28;20112;-77
2021/06/22 06:44:51;;;;;;;7.43;4.38;;;16.00;81.60;;;;;;5049228;28;20553;-76
2021/06/22 06:47:17;;;;;;;7.93;3.97;;;16.00;81.40;;;;;;5050093;28;20029;-76
2021/06/22 06:49:43;;;;;;;12.13;5.95;;;16.10;81.10;;;;;;5049212;28;20017;-76
2021/06/22 06:52:08;;;;;;;7.60;4.10;;;16.20;81.00;;;;;;5051242;28;20068;-76
2021/06/22 06:54:34;;;;;;;11.27;4.40;;;16.30;80.60;;;;;;5049935;28;20024;-75
2021/06/22 06:57:00;;;;;;;8.82;4.68;;;16.30;80.20;;;;;;5049016;28;20056;-76
2021/06/22 06:59:25;;;;;;;7.25;4.05;;;16.50;80.10;;;;;;5050017;28;20029;-77
2021/06/22 07:01:51;;;;;;;6.95;3.80;;;16.60;80.00;;;;;;5049211;28;20025;-77
2021/06/22 07:04:17;;;;;;;7.97;4.72;;;16.70;79.70;;;;;;5049561;28;20333;-76
2021/06/22 07:06:43;;;;;;;8.25;4.80;;;16.80;79.10;;;;;;5051595;28;20020;-76
2021/06/22 07:09:09;;;;;;;10.02;4.63;;;16.90;78.80;;;;;;5053394;28;20028;-76
2021/06/22 07:11:35;;;;;;;10.75;4.72;;;17.00;78.40;;;;;;5053321;28;20556;-77
2021/06/22 07:14:01;;;;;;;8.52;5.15;;;17.20;78.00;;;;;;5053728;28;20417;-76
2021/06/22 07:16:27;;;;;;;11.77;4.57;;;17.20;77.50;;;;;;5053145;28;20025;-77
2021/06/22 07:18:52;;;;;;;7.72;4.95;;;17.30;77.10;;;;;;5052625;28;20021;-76
2021/06/22 07:21:19;;;;;;;15.07;5.68;;;17.40;76.70;;;;;;5054160;28;20392;-76
2021/06/22 07:23:45;;;;;;;12.35;5.40;;;17.50;76.30;;;;;;5052428;28;20029;-76
2021/06/22 07:26:11;;;;;;;7.15;4.55;;;17.50;76.10;;;;;;5054371;28;20031;-76
2021/06/22 07:28:37;;;;;;;9.40;5.22;;;17.60;76.00;;;;;;5053115;28;20075;-76
2021/06/22 07:31:04;;;;;;;13.70;5.07;;;17.60;75.90;;;;;;5053667;28;20025;-75
2021/06/22 07:33:31;;;;;;;9.63;4.97;;;17.60;75.80;;;;;;5052899;28;20073;-76
2021/06/22 07:35:56;;;;;;;10.10;5.13;;;17.50;75.90;;;;;;5053558;28;20028;-77
2021/06/22 07:38:22;;;;;;;9.63;5.05;;;17.40;75.90;;;;;;5052912;28;20040;-76
2021/06/22 07:40:48;;;;;;;12.77;5.78;;;17.40;76.10;;;;;;5052179;28;20088;-75
2021/06/22 07:43:14;;;;;;;6.90;4.32;;;17.30;76.70;;;;;;5054172;28;20037;-76
2021/06/22 07:45:41;;;;;;;9.68;5.20;;;17.30;76.10;;;;;;5054137;28;20047;-76
2021/06/22 07:48:08;;;;;;;8.35;5.05;;;17.20;76.00;;;;;;5052369;28;20374;-77
2021/06/22 07:50:34;;;;;;;15.00;6.75;;;17.30;76.00;;;;;;5052578;28;20174;-76
2021/06/22 07:53:02;;;;;;;11.98;6.22;;;17.20;75.80;;;;;;5053571;28;20074;-76
2021/06/22 07:55:28;;;;;;;12.60;5.78;;;17.20;75.70;;;;;;5052444;28;20449;-76
2021/06/22 07:57:54;;;;;;;11.60;5.30;;;17.30;75.60;;;;;;5051689;28;20155;-75
2021/06/22 08:01:03;;;;;;;8.52;4.55;;;17.30;75.30;;;;;;5053633;28;20017;-76
2021/06/22 08:03:15;;;;;;;10.05;5.32;;;17.30;75.00;;;;;;5050051;28;20033;-76
2021/06/22 08:05:43;;;;;;;10.13;5.57;;;17.30;74.80;;;;;;5052550;28;20029;-76
2021/06/22 08:08:12;;;;;;;11.40;5.68;;;17.40;75.00;;;;;;5052329;28;20027;-77
2021/06/22 08:10:38;;;;;;;9.35;5.13;;;17.40;74.70;;;;;;5052232;28;20444;-76
2021/06/22 08:13:05;;;;;;;8.95;5.78;;;17.50;74.40;;;;;;5051569;28;20070;-76
2021/06/22 08:15:31;;;;;;;11.10;5.60;;;17.50;74.10;;;;;;5052231;28;20487;-76
2021/06/22 08:17:57;;;;;;;11.00;5.63;;;17.60;73.80;;;;;;5052462;28;20025;-75
2021/06/22 08:20:22;;;;;;;11.63;5.10;;;17.60;73.50;;;;;;5052030;28;20056;-76
2021/06/22 08:22:53;;;;;;;8.95;5.43;;;17.60;73.60;;;;;;5051333;28;20021;-76
2021/06/22 08:25:23;;;;;;;9.88;5.90;;;17.60;73.40;;;;;;5052034;28;20025;-75
2021/06/22 08:27:50;;;;;;;10.80;5.95;;;17.50;73.30;;;;;;5051332;28;20043;-77
2021/06/22 08:30:18;;;;;;;10.50;5.55;;;17.50;73.50;;;;;;5053254;28;20021;-76
2021/06/22 08:32:44;;;;;;;12.07;5.85;;;17.50;73.40;;;;;;5053104;28;20021;-76
2021/06/22 08:35:10;;;;;;;8.75;4.68;;;17.50;73.50;;;;;;5051938;28;20017;-76
2021/06/22 08:37:35;;;;;;;8.13;5.32;;;17.60;73.40;;;;;;5053063;28;20163;-76
2021/06/22 08:40:03;;;;;;;9.43;5.82;;;17.60;73.30;;;;;;5052545;28;20075;-76
2021/06/22 08:42:30;;;;;;;12.18;6.05;;;17.60;73.00;;;;;;5052037;28;20017;-76
2021/06/22 08:44:56;;;;;;;9.05;5.38;;;17.60;72.80;;;;;;5052315;28;20033;-77
2021/06/22 08:47:24;;;;;;;11.95;5.63;;;17.60;72.80;;;;;;5053245;28;20021;-76
2021/06/22 08:49:53;;;;;;;8.43;5.40;;;17.60;72.50;;;;;;5052197;28;20128;-75
2021/06/22 08:52:25;;;;;;;13.05;6.00;;;17.70;72.20;;;;;;5051302;28;20037;-75
2021/06/22 08:54:53;;;;;;;13.60;5.72;;;17.80;72.00;;;;;;5052289;28;20024;-76
2021/06/22 08:57:20;;;;;;;9.68;5.13;;;17.90;71.80;;;;;;5051073;28;20554;-75
2021/06/22 08:59:46;;;;;;;9.50;5.45;;;18.00;71.60;;;;;;5052696;28;20029;-75
2021/06/22 09:02:12;;;;;;;10.32;4.72;;;18.10;71.20;;;;;;5052620;28;20112;-76
2021/06/22 09:04:38;;;;;;;9.38;4.90;;;18.20;70.90;;;;;;5052737;28;20033;-76
2021/06/22 09:07:04;;;;;;;8.70;4.93;;;18.20;70.60;;;;;;5050533;28;20021;-76
2021/06/22 09:09:38;;;;;;;10.43;5.60;;;18.30;70.50;;;;;;5052690;28;20450;-75
2021/06/22 09:12:09;;;;;;;8.05;5.13;;;18.40;70.50;;;;;;5052008;28;20025;-75
2021/06/22 09:14:35;;;;;;;;;;;18.50;70.30;;;;;;5053124;28;20147;-76
2021/06/22 09:17:02;;;;;;;11.63;4.95;;;18.60;70.30;;;;;;5051629;28;19905;-77
2021/06/22 09:19:30;;;;;;;8.10;4.85;;;18.60;69.90;;;;;;5050963;28;20053;-76
2021/06/22 09:21:56;;;;;;;7.40;5.20;;;18.80;69.80;;;;;;5051566;28;20456;-76
2021/06/22 09:24:24;;;;;;;12.52;5.50;;;18.90;69.60;;;;;;5051069;28;20136;-76
2021/06/22 09:26:53;;;;;;;7.80;5.50;;;19.00;69.20;;;;;;5049974;28;20048;-76
2021/06/22 09:29:21;;;;;;;6.53;4.95;;;19.00;68.50;;;;;;5050059;28;20021;-76
2021/06/22 09:31:50;;;;;;;7.75;4.47;;;19.10;68.20;;;;;;5052585;28;20065;-76
2021/06/22 09:34:18;;;;;;;8.75;5.30;;;19.00;67.90;;;;;;5052183;28;20481;-76
2021/06/22 09:36:51;;;;;;;9.40;4.90;;;19.10;67.90;;;;;;5052008;28;20107;-74
2021/06/22 09:39:17;;;;;;;8.18;4.88;;;19.20;67.60;;;;;;5050667;28;20090;-76
2021/06/22 09:41:43;;;;;;;8.95;5.18;;;19.30;67.10;;;;;;5051738;28;20025;-75
2021/06/22 09:44:16;;;;;;;5.15;3.22;;;19.30;66.60;;;;;;5050014;28;20247;-76
2021/06/22 09:46:42;;;;;;;10.13;5.25;;;19.30;66.40;;;;;;5050567;28;20480;-76
2021/06/22 09:49:15;;;;;;;7.03;4.90;;;19.20;66.10;;;;;;5049859;28;20025;-77
2021/06/22 09:52:04;;;;;;;7.07;4.57;;;19.20;65.90;;;;;;5052153;28;20064;-75
2021/06/22 09:54:56;;;;;;;9.35;5.25;;;19.20;65.70;;;;;;5050647;28;20021;-76
2021/06/22 09:57:25;;;;;;;10.43;5.00;;;19.20;65.10;;;;;;5049357;28;20049;-76
2021/06/22 10:00:10;;;;;;;9.45;5.35;;;19.10;65.50;;;;;;5050055;28;20017;-80
2021/06/22 10:02:54;;;;;;;9.35;5.57;;;19.10;65.70;;;;;;5051600;28;20021;-75
2021/06/22 10:05:20;;;;;;;11.10;5.90;;;19.10;65.60;;;;;;5051755;28;20025;-76
2021/06/22 10:07:45;;;;;;;10.43;5.60;;;19.10;65.80;;;;;;5050404;28;20094;-76
2021/06/22 10:10:12;;;;;;;10.40;5.22;;;19.00;66.00;;;;;;5049519;28;20395;-76
2021/06/22 10:12:44;;;;;;;9.45;5.40;;;18.90;66.10;;;;;;5051389;28;20539;-76
2021/06/22 10:15:13;;;;;;;8.00;5.57;;;18.90;66.30;;;;;;5051065;28;20457;-75
2021/06/22 10:17:41;;;;;;;12.90;5.50;;;18.90;66.20;;;;;;5050348;28;20070;-75
2021/06/22 10:20:08;;;;;;;10.00;5.03;;;19.10;66.00;;;;;;5049694;28;20428;-76
2021/06/22 10:22:36;;;;;;;8.38;5.18;;;19.30;65.60;;;;;;5051899;28;20028;-74
2021/06/22 10:25:05;;;;;;;10.10;4.32;;;19.30;65.20;;;;;;5050983;28;20497;-77
2021/06/22 10:27:31;;;;;;;6.25;3.85;;;19.30;64.60;;;;;;5051591;28;20028;-76
2021/06/22 10:30:00;;;;;;;6.35;4.13;;;19.30;64.70;;;;;;5049428;28;20496;-75
2021/06/22 10:32:27;;;;;;;6.95;4.90;;;19.30;64.80;;;;;;5049860;28;20056;-76
2021/06/22 10:35:11;;;;;;;7.45;4.53;;;19.30;64.90;;;;;;5051568;28;20025;-76
2021/06/22 10:37:54;;;;;;;9.02;4.03;;;19.40;64.40;;;;;;5051163;28;20048;-75
2021/06/22 10:40:29;;;;;;;6.25;4.13;;;19.40;64.60;;;;;;5051803;28;20032;-76
2021/06/22 10:43:01;;;;;;;7.72;4.00;;;19.40;64.30;;;;;;5053393;28;20436;-76
2021/06/22 10:45:27;;;;;;;8.25;4.72;;;19.30;64.10;;;;;;5053883;28;20423;-75
2021/06/22 10:47:59;;;;;;;5.68;3.90;;;19.30;64.20;;;;;;5053841;28;20029;-76
2021/06/22 10:50:25;;;;;;;10.02;4.50;;;19.30;64.00;;;;;;5053845;28;20025;-76
2021/06/22 10:53:01;;;;;;;7.25;4.30;;;19.40;63.60;;;;;;5053702;28;20025;-76
2021/06/22 10:55:27;;;;;;;5.18;3.45;;;19.40;62.90;;;;;;5053848;28;20116;-76
2021/06/22 11:00:42;;;;;;;6.10;3.83;;;19.50;62.90;;;;;;5055102;28;20132;-76
2021/06/22 11:03:10;;;;;;;10.07;4.50;;;19.60;63.10;;;;;;5052766;28;20068;-75
2021/06/22 11:05:43;;;;;;;6.30;3.85;;;19.70;62.90;;;;;;5054812;28;20021;-76
2021/06/22 11:08:11;;;;;;;6.55;3.67;;;19.80;62.10;;;;;;5052991;28;20017;-76
2021/06/22 11:10:38;;;;;;;6.43;3.65;;;19.80;61.50;;;;;;5054475;28;20116;-75
2021/06/22 11:13:04;;;;;;;7.28;4.10;;;19.90;61.30;;;;;;5052765;28;20032;-76
2021/06/22 11:15:51;;;;;;;6.35;4.20;;;20.10;60.90;;;;;;5053395;28;20376;-76
2021/06/22 11:18:18;;;;;;;5.75;3.92;;;20.50;60.20;;;;;;5052634;28;20305;-77
2021/06/22 11:21:05;;;;;;;7.50;4.93;;;20.80;60.00;;;;;;5054719;28;20025;-76
2021/06/22 11:23:50;;;;;;;4.53;3.05;;;21.00;58.70;;;;;;5054140;28;20040;-76
2021/06/22 11:26:16;;;;;;;8.43;4.80;;;21.00;59.00;;;;;;5052710;28;20029;-76
2021/06/22 11:28:58;;;;;;;5.45;3.50;;;21.10;58.80;;;;;;5054023;28;20465;-76
2021/06/22 11:31:43;;;;;;;5.70;3.88;;;21.20;58.50;;;;;;5054037;28;20496;-76
2021/06/22 11:34:32;;;;;;;6.22;3.80;;;21.30;58.70;;;;;;5053613;28;20369;-77
2021/06/22 11:37:18;;;;;;;7.20;3.33;;;21.60;58.50;;;;;;5053957;28;20025;-80
2021/06/22 11:40:08;;;;;;;7.70;4.00;;;21.80;58.10;;;;;;5054046;28;20021;-76
2021/06/22 11:42:37;;;;;;;6.00;3.70;;;22.00;57.10;;;;;;5054267;28;20029;-75
2021/06/22 11:45:03;;;;;;;5.32;3.55;;;22.00;57.10;;;;;;5052115;28;20027;-76
2021/06/22 11:47:32;;;;;;;5.15;3.45;;;22.00;56.70;;;;;;5052850;28;20032;-76
2021/06/22 11:50:18;;;;;;;5.70;3.13;;;22.10;56.10;;;;;;5053810;28;20021;-76
2021/06/22 11:52:47;;;;;;;7.72;4.70;;;22.10;56.00;;;;;;5052960;28;20492;-76
2021/06/22 11:55:18;;;;;;;4.97;2.90;;;22.20;55.90;;;;;;5051960;28;20029;-76
2021/06/22 11:57:54;;;;;;;5.68;3.30;;;22.30;56.00;;;;;;5052348;28;20041;-76
2021/06/22 12:00:23;;;;;;;5.50;3.88;;;22.40;56.00;;;;;;5051980;28;20501;-77
2021/06/22 12:03:01;;;;;;;6.50;3.75;;;22.70;55.60;;;;;;5052459;28;20108;-77
2021/06/22 12:05:29;;;;;;;8.45;3.83;;;22.90;55.50;;;;;;5053978;28;20039;-77
2021/06/22 12:07:56;;;;;;;6.97;4.00;;;23.10;55.20;;;;;;5053774;28;20025;-76
2021/06/22 12:10:25;;;;;;;6.15;3.67;;;23.20;55.10;;;;;;5053391;28;20036;-76
2021/06/22 12:12:52;;;;;;;9.23;4.00;;;23.40;54.70;;;;;;5053697;28;20025;-76
2021/06/22 12:15:32;;;;;;;5.68;3.50;;;23.60;54.00;;;;;;5053226;28;20043;-76
2021/06/22 12:17:58;;;;;;;4.82;3.20;;;23.70;53.70;;;;;;5053684;28;20052;-76
2021/06/22 12:20:26;;;;;;;5.07;3.75;;;23.70;53.70;;;;;;5051635;28;20022;-76
2021/06/22 12:23:04;;;;;;;5.22;3.40;;;23.80;53.20;;;;;;5051924;28;20052;-76
2021/06/22 12:25:34;;;;;;;5.22;3.17;;;23.80;53.20;;;;;;5053644;28;20113;-77
2021/06/22 12:27:59;;;;;;;6.03;3.23;;;24.00;53.00;;;;;;5052493;28;20024;-76
2021/06/22 12:30:46;;;;;;;5.95;3.40;;;24.10;53.00;;;;;;5051776;28;20359;-77
2021/06/22 12:33:21;;;;;;;5.85;3.28;;;24.20;52.40;;;;;;5052795;28;20113;-76
2021/06/22 12:35:52;;;;;;;6.90;3.00;;;24.40;52.30;;;;;;5052494;28;20060;-77
2021/06/22 12:38:20;;;;;;;5.82;3.47;;;24.60;51.80;;;;;;5053459;28;20377;-77
2021/06/22 12:40:47;;;;;;;4.22;3.40;;;25.00;51.10;;;;;;5053516;28;20492;-76
2021/06/22 12:43:17;;;;;;;4.78;3.00;;;25.10;50.60;;;;;;5052185;28;20072;-76
2021/06/22 12:45:46;;;;;;;5.77;2.43;;;25.00;50.50;;;;;;5051741;28;20028;-75
2021/06/22 12:48:11;;;;;;;3.42;2.30;;;25.00;50.40;;;;;;5052113;28;20087;-76
2021/06/22 12:50:39;;;;;;;3.42;2.28;;;25.10;50.30;;;;;;5051601;28;20465;-76
2021/06/22 12:53:08;;;;;;;3.60;2.80;;;25.30;49.90;;;;;;5050532;28;20397;-77
2021/06/22 12:55:56;;;;;;;3.05;2.20;;;25.60;49.50;;;;;;5051661;28;20021;-77